sensor_id;sensor_type;location;lat;lon;timestamp;temperature;humidity
57386;DHT22;62655;56.780;23.922;2022-12-05T00:03:58;-1.20;99.90
57386;DHT22;62655;56.780;23.922;2022-12-05T00:06:28;-1.20;99.90
57386;DHT22;62655;56.780;23.922;2022-12-05T00:08:56;-1.20;99.90
57386;DHT22;62655;56.780;23.922;2022-12-05T00:11:26;-1.20;99.90
57386;DHT22;62655;56.780;23.922;2022-12-05T00:13:56;-1.20;99.90
57386;DHT22;62655;56.780;23.922;2022-12-05T00:16:25;-1.20;99.90
57386;DHT22;62655;56.780;23.922;2022-12-05T00:18:54;-1.20;99.90
57386;DHT22;62655;56.780;23.922;2022-12-05T00:21:25;-1.20;99.90
57386;DHT22;62655;56.780;23.922;2022-12-05T00:23:54;-1.20;99.90
57386;DHT22;62655;56.780;23.922;2022-12-05T00:26:22;-1.20;99.90
57386;DHT22;62655;56.780;23.922;2022-12-05T00:28:50;-1.20;99.90
57386;DHT22;62655;56.780;23.922;2022-12-05T00:31:20;-1.20;99.90
57386;DHT22;62655;56.780;23.922;2022-12-05T00:33:49;-1.20;99.90
57386;DHT22;62655;56.780;23.922;2022-12-05T00:36:26;-1.20;99.90
57386;DHT22;62655;56.780;23.922;2022-12-05T00:38:55;-1.20;99.90
57386;DHT22;62655;56.780;23.922;2022-12-05T00:41:27;-1.20;99.90
57386;DHT22;62655;56.780;23.922;2022-12-05T00:43:57;-1.30;99.90
57386;DHT22;62655;56.780;23.922;2022-12-05T00:46:27;-1.20;99.90
57386;DHT22;62655;56.780;23.922;2022-12-05T00:48:56;-1.30;99.90
57386;DHT22;62655;56.780;23.922;2022-12-05T00:51:36;-1.20;99.90
57386;DHT22;62655;56.780;23.922;2022-12-05T00:54:13;-1.30;99.90
57386;DHT22;62655;56.780;23.922;2022-12-05T00:56:41;-1.20;99.90
57386;DHT22;62655;56.780;23.922;2022-12-05T00:59:14;-1.30;99.90
57386;DHT22;62655;56.780;23.922;2022-12-05T01:01:45;-1.20;99.90
57386;DHT22;62655;56.780;23.922;2022-12-05T01:04:16;-1.20;99.90
57386;DHT22;62655;56.780;23.922;2022-12-05T01:06:44;-1.30;99.90
57386;DHT22;62655;56.780;23.922;2022-12-05T01:09:16;-1.20;99.90
57386;DHT22;62655;56.780;23.922;2022-12-05T01:11:44;-1.20;99.90
57386;DHT22;62655;56.780;23.922;2022-12-05T01:14:13;-1.30;99.90
57386;DHT22;62655;56.780;23.922;2022-12-05T01:16:42;-1.30;99.90
57386;DHT22;62655;56.780;23.922;2022-12-05T01:19:18;-1.30;99.90
57386;DHT22;62655;56.780;23.922;2022-12-05T01:21:47;-1.30;99.90
57386;DHT22;62655;56.780;23.922;2022-12-05T01:24:15;-1.20;99.90
57386;DHT22;62655;56.780;23.922;2022-12-05T01:26:44;-1.20;99.90
57386;DHT22;62655;56.780;23.922;2022-12-05T01:29:14;-1.20;99.90
57386;DHT22;62655;56.780;23.922;2022-12-05T01:31:41;-1.30;99.90
57386;DHT22;62655;56.780;23.922;2022-12-05T01:34:11;-1.30;99.90
57386;DHT22;62655;56.780;23.922;2022-12-05T01:36:40;-1.30;99.90
57386;DHT22;62655;56.780;23.922;2022-12-05T01:39:09;-1.30;99.90
57386;DHT22;62655;56.780;23.922;2022-12-05T01:41:43;-1.30;99.90
57386;DHT22;62655;56.780;23.922;2022-12-05T01:46:52;-1.30;99.90
57386;DHT22;62655;56.780;23.922;2022-12-05T01:49:33;-1.30;99.90
57386;DHT22;62655;56.780;23.922;2022-12-05T01:52:17;-1.30;99.90
57386;DHT22;62655;56.780;23.922;2022-12-05T01:54:48;-1.30;99.90
57386;DHT22;62655;56.780;23.922;2022-12-05T01:57:17;-1.30;99.90
57386;DHT22;62655;56.780;23.922;2022-12-05T01:59:49;-1.30;99.90
57386;DHT22;62655;56.780;23.922;2022-12-05T02:02:18;-1.40;99.90
57386;DHT22;62655;56.780;23.922;2022-12-05T02:05:03;-1.40;99.90
57386;DHT22;62655;56.780;23.922;2022-12-05T02:07:32;-1.30;99.90
57386;DHT22;62655;56.780;23.922;2022-12-05T02:10:00;-1.40;99.90
57386;DHT22;62655;56.780;23.922;2022-12-05T02:12:27;-1.40;99.90
57386;DHT22;62655;56.780;23.922;2022-12-05T02:34:30;-1.40;99.90
57386;DHT22;62655;56.780;23.922;2022-12-05T02:39:52;-1.40;99.90
57386;DHT22;62655;56.780;23.922;2022-12-05T02:42:40;-1.50;99.90
57386;DHT22;62655;56.780;23.922;2022-12-05T02:45:13;-1.50;99.90
57386;DHT22;62655;56.780;23.922;2022-12-05T02:47:48;-1.50;99.90
57386;DHT22;62655;56.780;23.922;2022-12-05T02:50:22;-1.50;99.90
57386;DHT22;62655;56.780;23.922;2022-12-05T02:52:52;-1.50;99.90
57386;DHT22;62655;56.780;23.922;2022-12-05T02:55:22;-1.50;99.90
57386;DHT22;62655;56.780;23.922;2022-12-05T02:57:54;-1.50;99.90
57386;DHT22;62655;56.780;23.922;2022-12-05T03:00:24;-1.50;99.90
57386;DHT22;62655;56.780;23.922;2022-12-05T03:02:55;-1.50;99.90
57386;DHT22;62655;56.780;23.922;2022-12-05T03:05:36;-1.60;99.90
57386;DHT22;62655;56.780;23.922;2022-12-05T03:08:11;-1.50;99.90
57386;DHT22;62655;56.780;23.922;2022-12-05T03:10:41;-1.60;99.90
57386;DHT22;62655;56.780;23.922;2022-12-05T03:13:59;-1.60;99.90
57386;DHT22;62655;56.780;23.922;2022-12-05T03:16:32;-1.60;99.90
57386;DHT22;62655;56.780;23.922;2022-12-05T03:19:06;-1.60;99.90
57386;DHT22;62655;56.780;23.922;2022-12-05T03:21:46;-1.60;99.90
57386;DHT22;62655;56.780;23.922;2022-12-05T03:24:17;-1.60;99.90
57386;DHT22;62655;56.780;23.922;2022-12-05T03:29:35;-1.70;99.90
57386;DHT22;62655;56.780;23.922;2022-12-05T03:32:25;-1.60;99.90
57386;DHT22;62655;56.780;23.922;2022-12-05T03:35:13;-1.60;99.90
57386;DHT22;62655;56.780;23.922;2022-12-05T03:38:00;-1.70;99.90
57386;DHT22;62655;56.780;23.922;2022-12-05T03:43:20;-1.60;99.90
57386;DHT22;62655;56.780;23.922;2022-12-05T03:48:37;-1.60;99.90
57386;DHT22;62655;56.780;23.922;2022-12-05T03:51:07;-1.60;99.90
57386;DHT22;62655;56.780;23.922;2022-12-05T03:53:50;-1.60;99.90
57386;DHT22;62655;56.780;23.922;2022-12-05T03:56:41;-1.60;99.90
57386;DHT22;62655;56.780;23.922;2022-12-05T03:59:16;-1.60;99.90
57386;DHT22;62655;56.780;23.922;2022-12-05T04:01:47;-1.60;99.90
57386;DHT22;62655;56.780;23.922;2022-12-05T04:04:25;-1.60;99.90
57386;DHT22;62655;56.780;23.922;2022-12-05T04:06:55;-1.60;99.90
57386;DHT22;62655;56.780;23.922;2022-12-05T04:12:33;-1.70;99.90
57386;DHT22;62655;56.780;23.922;2022-12-05T04:15:06;-1.70;99.90
57386;DHT22;62655;56.780;23.922;2022-12-05T04:17:48;-1.70;99.90
57386;DHT22;62655;56.780;23.922;2022-12-05T04:23:09;-1.70;99.90
57386;DHT22;62655;56.780;23.922;2022-12-05T04:25:55;-1.70;99.90
57386;DHT22;62655;56.780;23.922;2022-12-05T04:28:33;-1.70;99.90
57386;DHT22;62655;56.780;23.922;2022-12-05T04:31:04;-1.70;99.90
57386;DHT22;62655;56.780;23.922;2022-12-05T04:33:37;-1.70;99.90
57386;DHT22;62655;56.780;23.922;2022-12-05T04:36:24;-1.70;99.90
57386;DHT22;62655;56.780;23.922;2022-12-05T04:39:03;-1.70;99.90
57386;DHT22;62655;56.780;23.922;2022-12-05T04:41:35;-1.70;99.90
57386;DHT22;62655;56.780;23.922;2022-12-05T04:44:07;-1.70;99.90
57386;DHT22;62655;56.780;23.922;2022-12-05T04:46:38;-1.70;99.90
57386;DHT22;62655;56.780;23.922;2022-12-05T04:49:09;-1.70;99.90
57386;DHT22;62655;56.780;23.922;2022-12-05T04:51:38;-1.70;99.90
57386;DHT22;62655;56.780;23.922;2022-12-05T04:54:27;-1.80;99.90
57386;DHT22;62655;56.780;23.922;2022-12-05T04:57:01;-1.70;99.90
57386;DHT22;62655;56.780;23.922;2022-12-05T04:59:31;-1.80;99.90
57386;DHT22;62655;56.780;23.922;2022-12-05T05:02:06;-1.70;99.90
57386;DHT22;62655;56.780;23.922;2022-12-05T05:04:46;-1.80;99.90
57386;DHT22;62655;56.780;23.922;2022-12-05T05:07:14;-1.70;99.90
57386;DHT22;62655;56.780;23.922;2022-12-05T05:09:43;-1.70;99.90
57386;DHT22;62655;56.780;23.922;2022-12-05T05:12:10;-1.80;99.90
57386;DHT22;62655;56.780;23.922;2022-12-05T05:14:46;-1.80;99.90
57386;DHT22;62655;56.780;23.922;2022-12-05T05:17:13;-1.70;99.90
57386;DHT22;62655;56.780;23.922;2022-12-05T05:19:40;-1.80;99.90
57386;DHT22;62655;56.780;23.922;2022-12-05T05:22:08;-1.70;99.90
57386;DHT22;62655;56.780;23.922;2022-12-05T05:24:35;-1.80;99.90
57386;DHT22;62655;56.780;23.922;2022-12-05T05:27:03;-1.70;99.90
57386;DHT22;62655;56.780;23.922;2022-12-05T05:29:30;-1.70;99.90
57386;DHT22;62655;56.780;23.922;2022-12-05T05:31:58;-1.80;99.90
57386;DHT22;62655;56.780;23.922;2022-12-05T05:34:25;-1.80;99.90
57386;DHT22;62655;56.780;23.922;2022-12-05T05:36:54;-1.80;99.90
57386;DHT22;62655;56.780;23.922;2022-12-05T05:39:22;-1.80;99.90
57386;DHT22;62655;56.780;23.922;2022-12-05T05:41:49;-1.80;99.90
57386;DHT22;62655;56.780;23.922;2022-12-05T05:44:16;-1.80;99.90
57386;DHT22;62655;56.780;23.922;2022-12-05T05:46:44;-1.70;99.90
57386;DHT22;62655;56.780;23.922;2022-12-05T05:49:11;-1.80;99.90
57386;DHT22;62655;56.780;23.922;2022-12-05T05:51:39;-1.80;99.90
57386;DHT22;62655;56.780;23.922;2022-12-05T05:54:07;-1.80;99.90
57386;DHT22;62655;56.780;23.922;2022-12-05T05:56:35;-1.80;99.90
57386;DHT22;62655;56.780;23.922;2022-12-05T05:59:03;-1.80;99.90
57386;DHT22;62655;56.780;23.922;2022-12-05T06:01:30;-1.80;99.90
57386;DHT22;62655;56.780;23.922;2022-12-05T06:03:58;-1.80;99.90
57386;DHT22;62655;56.780;23.922;2022-12-05T06:06:26;-1.80;99.90
57386;DHT22;62655;56.780;23.922;2022-12-05T06:08:54;-1.80;99.90
57386;DHT22;62655;56.780;23.922;2022-12-05T06:11:24;-1.80;99.90
57386;DHT22;62655;56.780;23.922;2022-12-05T06:13:58;-1.80;99.90
57386;DHT22;62655;56.780;23.922;2022-12-05T06:16:30;-1.80;99.90
57386;DHT22;62655;56.780;23.922;2022-12-05T06:18:58;-1.80;99.90
57386;DHT22;62655;56.780;23.922;2022-12-05T06:21:26;-1.80;99.90
57386;DHT22;62655;56.780;23.922;2022-12-05T06:23:54;-1.80;99.90
57386;DHT22;62655;56.780;23.922;2022-12-05T06:26:22;-1.80;99.90
57386;DHT22;62655;56.780;23.922;2022-12-05T06:28:50;-1.80;99.90
57386;DHT22;62655;56.780;23.922;2022-12-05T06:31:23;-1.80;99.90
57386;DHT22;62655;56.780;23.922;2022-12-05T06:33:53;-1.80;99.90
57386;DHT22;62655;56.780;23.922;2022-12-05T06:36:21;-1.80;99.90
57386;DHT22;62655;56.780;23.922;2022-12-05T06:38:49;-1.90;99.90
57386;DHT22;62655;56.780;23.922;2022-12-05T06:41:18;-1.80;99.90
57386;DHT22;62655;56.780;23.922;2022-12-05T06:43:45;-1.90;99.90
57386;DHT22;62655;56.780;23.922;2022-12-05T06:46:14;-1.80;99.90
57386;DHT22;62655;56.780;23.922;2022-12-05T06:48:42;-1.80;99.90
57386;DHT22;62655;56.780;23.922;2022-12-05T06:51:12;-1.90;99.90
57386;DHT22;62655;56.780;23.922;2022-12-05T06:53:40;-1.90;99.90
57386;DHT22;62655;56.780;23.922;2022-12-05T06:56:11;-1.90;99.90
57386;DHT22;62655;56.780;23.922;2022-12-05T06:58:44;-1.90;99.90
57386;DHT22;62655;56.780;23.922;2022-12-05T07:01:13;-1.90;99.90
57386;DHT22;62655;56.780;23.922;2022-12-05T07:04:00;-1.90;99.90
57386;DHT22;62655;56.780;23.922;2022-12-05T07:06:27;-1.90;99.90
57386;DHT22;62655;56.780;23.922;2022-12-05T07:08:55;-1.90;99.90
57386;DHT22;62655;56.780;23.922;2022-12-05T07:11:22;-1.90;99.90
57386;DHT22;62655;56.780;23.922;2022-12-05T07:13:50;-1.90;99.90
57386;DHT22;62655;56.780;23.922;2022-12-05T07:16:17;-1.90;99.90
57386;DHT22;62655;56.780;23.922;2022-12-05T07:18:45;-1.90;99.90
57386;DHT22;62655;56.780;23.922;2022-12-05T07:21:14;-1.80;99.90
57386;DHT22;62655;56.780;23.922;2022-12-05T07:23:43;-1.80;99.90
57386;DHT22;62655;56.780;23.922;2022-12-05T07:26:14;-1.80;99.90
57386;DHT22;62655;56.780;23.922;2022-12-05T07:28:41;-1.90;99.90
57386;DHT22;62655;56.780;23.922;2022-12-05T07:31:12;-1.90;99.90
57386;DHT22;62655;56.780;23.922;2022-12-05T07:33:40;-1.90;99.90
57386;DHT22;62655;56.780;23.922;2022-12-05T07:36:14;-1.90;99.90
57386;DHT22;62655;56.780;23.922;2022-12-05T07:38:45;-1.90;99.90
57386;DHT22;62655;56.780;23.922;2022-12-05T07:41:21;-1.90;99.90
57386;DHT22;62655;56.780;23.922;2022-12-05T07:43:53;-1.90;99.90
57386;DHT22;62655;56.780;23.922;2022-12-05T07:46:22;-1.90;99.90
57386;DHT22;62655;56.780;23.922;2022-12-05T07:48:50;-1.90;99.90
57386;DHT22;62655;56.780;23.922;2022-12-05T07:51:18;-1.90;99.90
57386;DHT22;62655;56.780;23.922;2022-12-05T07:53:46;-1.90;99.90
57386;DHT22;62655;56.780;23.922;2022-12-05T07:56:16;-2.00;99.90
57386;DHT22;62655;56.780;23.922;2022-12-05T07:58:44;-2.00;99.90
57386;DHT22;62655;56.780;23.922;2022-12-05T08:01:18;-2.00;99.90
57386;DHT22;62655;56.780;23.922;2022-12-05T08:03:46;-2.00;99.90
57386;DHT22;62655;56.780;23.922;2022-12-05T08:06:19;-2.00;99.90
57386;DHT22;62655;56.780;23.922;2022-12-05T08:08:47;-2.00;99.90
57386;DHT22;62655;56.780;23.922;2022-12-05T08:11:21;-2.00;99.90
57386;DHT22;62655;56.780;23.922;2022-12-05T08:13:49;-2.00;99.90
57386;DHT22;62655;56.780;23.922;2022-12-05T08:16:20;-2.00;99.90
57386;DHT22;62655;56.780;23.922;2022-12-05T08:18:47;-2.00;99.90
57386;DHT22;62655;56.780;23.922;2022-12-05T08:21:18;-2.00;99.90
57386;DHT22;62655;56.780;23.922;2022-12-05T08:23:46;-2.00;99.90
57386;DHT22;62655;56.780;23.922;2022-12-05T08:26:17;-2.00;99.90
57386;DHT22;62655;56.780;23.922;2022-12-05T08:28:50;-2.10;99.90
57386;DHT22;62655;56.780;23.922;2022-12-05T08:31:20;-2.10;99.90
57386;DHT22;62655;56.780;23.922;2022-12-05T08:33:51;-2.10;99.90
57386;DHT22;62655;56.780;23.922;2022-12-05T08:36:29;-2.10;99.90
57386;DHT22;62655;56.780;23.922;2022-12-05T08:39:03;-2.10;99.90
57386;DHT22;62655;56.780;23.922;2022-12-05T08:41:32;-2.10;99.90
57386;DHT22;62655;56.780;23.922;2022-12-05T08:44:03;-2.10;99.90
57386;DHT22;62655;56.780;23.922;2022-12-05T08:46:33;-2.10;99.90
57386;DHT22;62655;56.780;23.922;2022-12-05T08:49:05;-2.10;99.90
57386;DHT22;62655;56.780;23.922;2022-12-05T08:51:32;-2.10;99.90
57386;DHT22;62655;56.780;23.922;2022-12-05T08:54:04;-2.10;99.90
57386;DHT22;62655;56.780;23.922;2022-12-05T08:56:31;-2.10;99.90
57386;DHT22;62655;56.780;23.922;2022-12-05T08:58:59;-2.10;99.90
57386;DHT22;62655;56.780;23.922;2022-12-05T09:01:33;-2.10;99.90
57386;DHT22;62655;56.780;23.922;2022-12-05T09:04:03;-2.10;99.90
57386;DHT22;62655;56.780;23.922;2022-12-05T09:06:32;-2.10;99.90
57386;DHT22;62655;56.780;23.922;2022-12-05T09:09:03;-2.10;99.90
57386;DHT22;62655;56.780;23.922;2022-12-05T09:11:34;-2.10;99.90
57386;DHT22;62655;56.780;23.922;2022-12-05T09:14:03;-2.10;99.90
57386;DHT22;62655;56.780;23.922;2022-12-05T09:16:34;-2.10;99.90
57386;DHT22;62655;56.780;23.922;2022-12-05T09:19:09;-2.20;99.90
57386;DHT22;62655;56.780;23.922;2022-12-05T09:21:37;-2.20;99.90
57386;DHT22;62655;56.780;23.922;2022-12-05T09:24:05;-2.20;99.90
57386;DHT22;62655;56.780;23.922;2022-12-05T09:26:33;-2.20;99.90
57386;DHT22;62655;56.780;23.922;2022-12-05T09:29:01;-2.20;99.90
57386;DHT22;62655;56.780;23.922;2022-12-05T09:31:30;-2.30;99.90
57386;DHT22;62655;56.780;23.922;2022-12-05T09:33:57;-2.20;99.90
57386;DHT22;62655;56.780;23.922;2022-12-05T09:36:28;-2.20;99.90
57386;DHT22;62655;56.780;23.922;2022-12-05T09:39:00;-2.20;99.90
57386;DHT22;62655;56.780;23.922;2022-12-05T09:41:57;-2.20;99.90
57386;DHT22;62655;56.780;23.922;2022-12-05T09:50:28;-2.30;99.90
57386;DHT22;62655;56.780;23.922;2022-12-05T09:55:51;-2.30;99.90
57386;DHT22;62655;56.780;23.922;2022-12-05T10:01:03;-2.40;99.90
57386;DHT22;62655;56.780;23.922;2022-12-05T10:03:46;-2.30;99.90
57386;DHT22;62655;56.780;23.922;2022-12-05T10:06:28;-2.30;99.90
57386;DHT22;62655;56.780;23.922;2022-12-05T10:09:27;-2.30;99.90
57386;DHT22;62655;56.780;23.922;2022-12-05T10:12:19;-2.40;99.90
57386;DHT22;62655;56.780;23.922;2022-12-05T10:20:49;-2.40;99.90
57386;DHT22;62655;56.780;23.922;2022-12-05T10:23:22;-2.30;99.90
57386;DHT22;62655;56.780;23.922;2022-12-05T10:26:12;-2.30;99.90
57386;DHT22;62655;56.780;23.922;2022-12-05T10:28:52;-2.30;99.90
57386;DHT22;62655;56.780;23.922;2022-12-05T10:31:26;-2.10;99.90
57386;DHT22;62655;56.780;23.922;2022-12-05T10:34:05;-2.20;99.90
57386;DHT22;62655;56.780;23.922;2022-12-05T10:36:37;-2.20;99.90
57386;DHT22;62655;56.780;23.922;2022-12-05T10:39:05;-2.30;99.90
57386;DHT22;62655;56.780;23.922;2022-12-05T10:41:37;-2.30;99.90
57386;DHT22;62655;56.780;23.922;2022-12-05T10:44:04;-2.30;99.90
57386;DHT22;62655;56.780;23.922;2022-12-05T10:46:32;-2.40;99.90
57386;DHT22;62655;56.780;23.922;2022-12-05T10:49:00;-2.40;99.90
57386;DHT22;62655;56.780;23.922;2022-12-05T10:51:27;-2.40;99.90
57386;DHT22;62655;56.780;23.922;2022-12-05T10:54:17;-2.40;99.90
57386;DHT22;62655;56.780;23.922;2022-12-05T10:56:48;-2.40;99.90
57386;DHT22;62655;56.780;23.922;2022-12-05T10:59:21;-2.50;99.90
57386;DHT22;62655;56.780;23.922;2022-12-05T11:01:55;-2.50;99.90
57386;DHT22;62655;56.780;23.922;2022-12-05T11:04:41;-2.50;99.90
57386;DHT22;62655;56.780;23.922;2022-12-05T11:07:37;-2.50;99.90
57386;DHT22;62655;56.780;23.922;2022-12-05T11:10:23;-2.60;99.90
57386;DHT22;62655;56.780;23.922;2022-12-05T11:12:55;-2.60;99.90
57386;DHT22;62655;56.780;23.922;2022-12-05T11:15:26;-2.60;99.90
57386;DHT22;62655;56.780;23.922;2022-12-05T11:17:56;-2.60;99.90
57386;DHT22;62655;56.780;23.922;2022-12-05T11:22:53;-2.70;99.90
57386;DHT22;62655;56.780;23.922;2022-12-05T11:25:29;-2.70;99.90
57386;DHT22;62655;56.780;23.922;2022-12-05T11:27:59;-2.60;99.90
57386;DHT22;62655;56.780;23.922;2022-12-05T11:30:28;-2.70;99.90
57386;DHT22;62655;56.780;23.922;2022-12-05T11:33:21;-2.70;99.90
57386;DHT22;62655;56.780;23.922;2022-12-05T11:35:53;-2.70;99.90
57386;DHT22;62655;56.780;23.922;2022-12-05T11:38:23;-2.70;99.90
57386;DHT22;62655;56.780;23.922;2022-12-05T11:44:02;-2.80;99.90
57386;DHT22;62655;56.780;23.922;2022-12-05T11:50:02;-2.80;99.90
57386;DHT22;62655;56.780;23.922;2022-12-05T11:58:25;-2.90;99.90
57386;DHT22;62655;56.780;23.922;2022-12-05T12:01:21;-2.90;99.90
57386;DHT22;62655;56.780;23.922;2022-12-05T12:04:15;-2.80;99.90
57386;DHT22;62655;56.780;23.922;2022-12-05T12:18:23;-2.90;99.90
57386;DHT22;62655;56.780;23.922;2022-12-05T12:27:31;-3.00;99.90
57386;DHT22;62655;56.780;23.922;2022-12-05T12:33:08;-3.00;99.90
57386;DHT22;62655;56.780;23.922;2022-12-05T12:35:55;-3.00;99.90
57386;DHT22;62655;56.780;23.922;2022-12-05T12:44:19;-3.10;99.90
57386;DHT22;62655;56.780;23.922;2022-12-05T12:47:35;-3.10;99.90
57386;DHT22;62655;56.780;23.922;2022-12-05T12:50:13;-3.10;99.90
57386;DHT22;62655;56.780;23.922;2022-12-05T13:04:21;-3.10;99.90
57386;DHT22;62655;56.780;23.922;2022-12-05T13:09:59;-3.20;99.90
57386;DHT22;62655;56.780;23.922;2022-12-05T13:12:31;-3.20;99.90
57386;DHT22;62655;56.780;23.922;2022-12-05T13:15:06;-3.20;99.90
57386;DHT22;62655;56.780;23.922;2022-12-05T13:17:39;-3.20;99.90
57386;DHT22;62655;56.780;23.922;2022-12-05T13:20:19;-3.20;99.90
57386;DHT22;62655;56.780;23.922;2022-12-05T13:22:49;-3.20;99.90
57386;DHT22;62655;56.780;23.922;2022-12-05T13:25:21;-3.20;99.90
57386;DHT22;62655;56.780;23.922;2022-12-05T13:27:59;-3.20;99.90
57386;DHT22;62655;56.780;23.922;2022-12-05T13:30:27;-3.30;99.90
57386;DHT22;62655;56.780;23.922;2022-12-05T13:32:57;-3.30;99.90
57386;DHT22;62655;56.780;23.922;2022-12-05T13:35:33;-3.30;99.90
57386;DHT22;62655;56.780;23.922;2022-12-05T13:38:22;-3.30;99.90
57386;DHT22;62655;56.780;23.922;2022-12-05T13:41:12;-3.30;99.90
57386;DHT22;62655;56.780;23.922;2022-12-05T13:43:59;-3.30;99.90
57386;DHT22;62655;56.780;23.922;2022-12-05T13:46:34;-3.30;99.90
57386;DHT22;62655;56.780;23.922;2022-12-05T13:49:32;-3.30;99.90
57386;DHT22;62655;56.780;23.922;2022-12-05T13:52:09;-3.30;99.90
57386;DHT22;62655;56.780;23.922;2022-12-05T13:55:01;-3.30;99.90
57386;DHT22;62655;56.780;23.922;2022-12-05T14:10:21;-3.50;99.90
57386;DHT22;62655;56.780;23.922;2022-12-05T14:12:53;-3.50;99.90
57386;DHT22;62655;56.780;23.922;2022-12-05T14:18:07;-3.50;99.90
57386;DHT22;62655;56.780;23.922;2022-12-05T14:31:50;-3.70;99.90
57386;DHT22;62655;56.780;23.922;2022-12-05T14:34:35;-3.70;99.90
57386;DHT22;62655;56.780;23.922;2022-12-05T14:37:06;-3.70;99.90
57386;DHT22;62655;56.780;23.922;2022-12-05T14:39:48;-3.70;99.90
57386;DHT22;62655;56.780;23.922;2022-12-05T14:42:58;-3.70;99.90
57386;DHT22;62655;56.780;23.922;2022-12-05T14:45:46;-3.70;99.90
57386;DHT22;62655;56.780;23.922;2022-12-05T14:48:41;-3.70;99.90
57386;DHT22;62655;56.780;23.922;2022-12-05T14:54:09;-3.70;99.90
57386;DHT22;62655;56.780;23.922;2022-12-05T14:57:08;-3.70;99.90
57386;DHT22;62655;56.780;23.922;2022-12-05T14:59:51;-3.80;99.90
57386;DHT22;62655;56.780;23.922;2022-12-05T15:02:42;-3.70;99.90
57386;DHT22;62655;56.780;23.922;2022-12-05T15:05:22;-3.80;99.90
57386;DHT22;62655;56.780;23.922;2022-12-05T15:07:52;-3.70;99.90
57386;DHT22;62655;56.780;23.922;2022-12-05T15:10:26;-3.70;99.90
57386;DHT22;62655;56.780;23.922;2022-12-05T15:12:57;-3.80;99.90
57386;DHT22;62655;56.780;23.922;2022-12-05T15:18:25;-3.80;99.90
57386;DHT22;62655;56.780;23.922;2022-12-05T15:21:17;-3.80;99.90
57386;DHT22;62655;56.780;23.922;2022-12-05T15:23:55;-3.80;99.90
57386;DHT22;62655;56.780;23.922;2022-12-05T15:26:50;-3.80;99.90
57386;DHT22;62655;56.780;23.922;2022-12-05T15:31:56;-3.80;99.90
57386;DHT22;62655;56.780;23.922;2022-12-05T15:34:49;-3.80;99.90
57386;DHT22;62655;56.780;23.922;2022-12-05T15:39:57;-3.80;99.90
57386;DHT22;62655;56.780;23.922;2022-12-05T15:42:28;-3.80;99.90
57386;DHT22;62655;56.780;23.922;2022-12-05T15:47:54;-3.80;99.90
57386;DHT22;62655;56.780;23.922;2022-12-05T15:50:35;-3.80;99.90
57386;DHT22;62655;56.780;23.922;2022-12-05T15:58:24;-3.80;99.90
57386;DHT22;62655;56.780;23.922;2022-12-05T16:04:04;-3.80;99.90
57386;DHT22;62655;56.780;23.922;2022-12-05T16:06:42;-3.80;99.90
57386;DHT22;62655;56.780;23.922;2022-12-05T16:09:21;-3.80;99.90
57386;DHT22;62655;56.780;23.922;2022-12-05T16:11:58;-3.80;99.90
57386;DHT22;62655;56.780;23.922;2022-12-05T16:14:37;-3.80;99.90
57386;DHT22;62655;56.780;23.922;2022-12-05T16:17:25;-3.80;99.90
57386;DHT22;62655;56.780;23.922;2022-12-05T16:20:10;-3.70;99.90
57386;DHT22;62655;56.780;23.922;2022-12-05T16:22:49;-3.70;99.90
57386;DHT22;62655;56.780;23.922;2022-12-05T16:25:28;-3.70;99.90
57386;DHT22;62655;56.780;23.922;2022-12-05T16:28:02;-3.80;99.90
57386;DHT22;62655;56.780;23.922;2022-12-05T16:30:30;-3.80;99.90
57386;DHT22;62655;56.780;23.922;2022-12-05T16:33:18;-3.80;99.90
57386;DHT22;62655;56.780;23.922;2022-12-05T16:35:46;-3.80;99.90
57386;DHT22;62655;56.780;23.922;2022-12-05T16:38:25;-3.80;99.90
57386;DHT22;62655;56.780;23.922;2022-12-05T16:41:01;-3.80;99.90
57386;DHT22;62655;56.780;23.922;2022-12-05T16:48:46;-3.80;99.90
57386;DHT22;62655;56.780;23.922;2022-12-05T16:51:20;-3.80;99.90
57386;DHT22;62655;56.780;23.922;2022-12-05T16:53:53;-3.80;99.90
57386;DHT22;62655;56.780;23.922;2022-12-05T16:56:31;-3.90;99.90
57386;DHT22;62655;56.780;23.922;2022-12-05T16:59:06;-3.90;99.90
57386;DHT22;62655;56.780;23.922;2022-12-05T17:01:38;-3.90;99.90
57386;DHT22;62655;56.780;23.922;2022-12-05T17:04:09;-3.90;99.90
57386;DHT22;62655;56.780;23.922;2022-12-05T17:06:37;-3.90;99.90
57386;DHT22;62655;56.780;23.922;2022-12-05T17:09:05;-3.90;99.90
57386;DHT22;62655;56.780;23.922;2022-12-05T17:11:34;-3.90;99.90
57386;DHT22;62655;56.780;23.922;2022-12-05T17:14:03;-3.90;99.90
57386;DHT22;62655;56.780;23.922;2022-12-05T17:16:30;-3.90;99.90
57386;DHT22;62655;56.780;23.922;2022-12-05T17:18:58;-3.90;99.90
57386;DHT22;62655;56.780;23.922;2022-12-05T17:21:28;-3.90;99.90
57386;DHT22;62655;56.780;23.922;2022-12-05T17:23:56;-3.90;99.90
57386;DHT22;62655;56.780;23.922;2022-12-05T17:26:24;-3.90;99.90
57386;DHT22;62655;56.780;23.922;2022-12-05T17:28:52;-3.90;99.90
57386;DHT22;62655;56.780;23.922;2022-12-05T17:31:21;-3.90;99.90
57386;DHT22;62655;56.780;23.922;2022-12-05T17:33:51;-3.90;99.90
57386;DHT22;62655;56.780;23.922;2022-12-05T17:36:19;-3.90;99.90
57386;DHT22;62655;56.780;23.922;2022-12-05T17:38:47;-3.90;99.90
57386;DHT22;62655;56.780;23.922;2022-12-05T17:41:17;-3.90;99.90
57386;DHT22;62655;56.780;23.922;2022-12-05T17:43:45;-3.90;99.90
57386;DHT22;62655;56.780;23.922;2022-12-05T17:46:20;-3.90;99.90
57386;DHT22;62655;56.780;23.922;2022-12-05T17:48:49;-3.90;99.90
57386;DHT22;62655;56.780;23.922;2022-12-05T17:51:18;-3.80;99.90
57386;DHT22;62655;56.780;23.922;2022-12-05T17:53:46;-3.90;99.90
57386;DHT22;62655;56.780;23.922;2022-12-05T17:56:14;-3.90;99.90
57386;DHT22;62655;56.780;23.922;2022-12-05T17:58:42;-3.90;99.90
57386;DHT22;62655;56.780;23.922;2022-12-05T18:01:17;-3.80;99.90
57386;DHT22;62655;56.780;23.922;2022-12-05T18:03:47;-3.80;99.90
57386;DHT22;62655;56.780;23.922;2022-12-05T18:06:15;-3.80;99.90
57386;DHT22;62655;56.780;23.922;2022-12-05T18:08:43;-3.80;99.90
57386;DHT22;62655;56.780;23.922;2022-12-05T18:11:12;-3.80;99.90
57386;DHT22;62655;56.780;23.922;2022-12-05T18:13:40;-3.80;99.90
57386;DHT22;62655;56.780;23.922;2022-12-05T18:16:09;-3.80;99.90
57386;DHT22;62655;56.780;23.922;2022-12-05T18:18:37;-3.80;99.90
57386;DHT22;62655;56.780;23.922;2022-12-05T18:21:06;-3.80;99.90
57386;DHT22;62655;56.780;23.922;2022-12-05T18:23:36;-3.80;99.90
57386;DHT22;62655;56.780;23.922;2022-12-05T18:26:05;-3.80;99.90
57386;DHT22;62655;56.780;23.922;2022-12-05T18:28:35;-3.70;99.90
57386;DHT22;62655;56.780;23.922;2022-12-05T18:31:12;-3.70;99.90
57386;DHT22;62655;56.780;23.922;2022-12-05T18:33:42;-3.70;99.90
57386;DHT22;62655;56.780;23.922;2022-12-05T18:36:16;-3.70;99.90
57386;DHT22;62655;56.780;23.922;2022-12-05T18:38:52;-3.80;99.90
57386;DHT22;62655;56.780;23.922;2022-12-05T18:41:21;-3.70;99.90
57386;DHT22;62655;56.780;23.922;2022-12-05T18:43:53;-3.70;99.90